sensor_id;sensor_type;location;lat;lon;timestamp;pressure;altitude;pressure_sealevel;temperature
71807;BMP280;59655;42.590;23.364;2023-07-13T00:01:29;91915.88;;;24.43
71807;BMP280;59655;42.590;23.364;2023-07-13T00:03:56;91917.00;;;24.38
71807;BMP280;59655;42.590;23.364;2023-07-13T00:06:22;91917.88;;;24.43
71807;BMP280;59655;42.590;23.364;2023-07-13T00:08:47;91911.53;;;24.36
71807;BMP280;59655;42.590;23.364;2023-07-13T00:11:15;91916.69;;;24.30
71807;BMP280;59655;42.590;23.364;2023-07-13T00:13:42;91904.41;;;24.27
71807;BMP280;59655;42.590;23.364;2023-07-13T00:16:09;91896.41;;;24.31
71807;BMP280;59655;42.590;23.364;2023-07-13T00:18:35;91899.44;;;24.22
71807;BMP280;59655;42.590;23.364;2023-07-13T00:21:00;91897.88;;;24.16
71807;BMP280;59655;42.590;23.364;2023-07-13T00:23:34;91891.91;;;24.20
71807;BMP280;59655;42.590;23.364;2023-07-13T00:26:02;91899.97;;;24.18
71807;BMP280;59655;42.590;23.364;2023-07-13T00:28:28;91892.22;;;24.10
71807;BMP280;59655;42.590;23.364;2023-07-13T00:30:53;91892.06;;;24.06
71807;BMP280;59655;42.590;23.364;2023-07-13T00:33:19;91893.91;;;24.02
71807;BMP280;59655;42.590;23.364;2023-07-13T00:35:44;91889.78;;;24.01
71807;BMP280;59655;42.590;23.364;2023-07-13T00:38:10;91890.59;;;24.03
71807;BMP280;59655;42.590;23.364;2023-07-13T00:40:35;91881.91;;;24.07
71807;BMP280;59655;42.590;23.364;2023-07-13T00:43:01;91889.41;;;24.08
71807;BMP280;59655;42.590;23.364;2023-07-13T00:47:55;91887.78;;;24.01
71807;BMP280;59655;42.590;23.364;2023-07-13T00:50:23;91883.25;;;23.90
71807;BMP280;59655;42.590;23.364;2023-07-13T00:52:52;91890.34;;;23.97
71807;BMP280;59655;42.590;23.364;2023-07-13T00:55:20;91880.13;;;23.95
71807;BMP280;59655;42.590;23.364;2023-07-13T00:57:46;91883.44;;;23.94
71807;BMP280;59655;42.590;23.364;2023-07-13T01:00:12;91885.91;;;23.88
71807;BMP280;59655;42.590;23.364;2023-07-13T01:02:40;91881.66;;;23.83
71807;BMP280;59655;42.590;23.364;2023-07-13T01:05:12;91870.34;;;23.88
71807;BMP280;59655;42.590;23.364;2023-07-13T01:07:40;91876.13;;;23.81
71807;BMP280;59655;42.590;23.364;2023-07-13T01:10:06;91873.31;;;23.79
71807;BMP280;59655;42.590;23.364;2023-07-13T01:12:32;91868.47;;;23.75
71807;BMP280;59655;42.590;23.364;2023-07-13T01:14:58;91866.38;;;23.74
71807;BMP280;59655;42.590;23.364;2023-07-13T01:17:26;91867.69;;;23.73
71807;BMP280;59655;42.590;23.364;2023-07-13T01:19:52;91873.78;;;23.73
71807;BMP280;59655;42.590;23.364;2023-07-13T01:22:18;91872.94;;;23.68
71807;BMP280;59655;42.590;23.364;2023-07-13T01:24:47;91874.28;;;23.67
71807;BMP280;59655;42.590;23.364;2023-07-13T01:27:15;91871.44;;;23.65
71807;BMP280;59655;42.590;23.364;2023-07-13T01:29:43;91869.91;;;23.60
71807;BMP280;59655;42.590;23.364;2023-07-13T01:32:11;91856.28;;;23.58
71807;BMP280;59655;42.590;23.364;2023-07-13T01:34:37;91863.72;;;23.58
71807;BMP280;59655;42.590;23.364;2023-07-13T01:37:06;91867.66;;;23.55
71807;BMP280;59655;42.590;23.364;2023-07-13T01:39:32;91868.34;;;23.55
71807;BMP280;59655;42.590;23.364;2023-07-13T01:41:58;91871.06;;;23.55
71807;BMP280;59655;42.590;23.364;2023-07-13T01:44:24;91871.94;;;23.44
71807;BMP280;59655;42.590;23.364;2023-07-13T01:46:49;91865.06;;;23.41
71807;BMP280;59655;42.590;23.364;2023-07-13T01:49:15;91867.06;;;23.40
71807;BMP280;59655;42.590;23.364;2023-07-13T01:51:40;91874.31;;;23.36
71807;BMP280;59655;42.590;23.364;2023-07-13T01:54:06;91866.78;;;23.34
71807;BMP280;59655;42.590;23.364;2023-07-13T01:56:31;91867.50;;;23.35
71807;BMP280;59655;42.590;23.364;2023-07-13T01:58:56;91861.38;;;23.34
71807;BMP280;59655;42.590;23.364;2023-07-13T02:01:22;91864.31;;;23.23
71807;BMP280;59655;42.590;23.364;2023-07-13T02:03:47;91864.31;;;23.23
71807;BMP280;59655;42.590;23.364;2023-07-13T02:06:13;91864.19;;;23.20
71807;BMP280;59655;42.590;23.364;2023-07-13T02:08:41;91863.16;;;23.28
71807;BMP280;59655;42.590;23.364;2023-07-13T02:11:07;91869.53;;;23.18
71807;BMP280;59655;42.590;23.364;2023-07-13T02:13:33;91867.00;;;23.23
71807;BMP280;59655;42.590;23.364;2023-07-13T02:15:58;91868.22;;;23.19
71807;BMP280;59655;42.590;23.364;2023-07-13T02:18:24;91865.44;;;23.17
71807;BMP280;59655;42.590;23.364;2023-07-13T02:20:49;91868.94;;;23.20
71807;BMP280;59655;42.590;23.364;2023-07-13T02:23:15;91876.97;;;23.18
71807;BMP280;59655;42.590;23.364;2023-07-13T02:25:40;91869.97;;;23.13
71807;BMP280;59655;42.590;23.364;2023-07-13T02:28:06;91865.88;;;23.12
71807;BMP280;59655;42.590;23.364;2023-07-13T02:30:31;91870.75;;;23.15
71807;BMP280;59655;42.590;23.364;2023-07-13T02:32:57;91869.69;;;22.75
71807;BMP280;59655;42.590;23.364;2023-07-13T02:35:22;91863.34;;;22.84
71807;BMP280;59655;42.590;23.364;2023-07-13T02:37:49;91861.16;;;22.96
71807;BMP280;59655;42.590;23.364;2023-07-13T02:40:14;91873.56;;;22.86
71807;BMP280;59655;42.590;23.364;2023-07-13T02:42:40;91876.44;;;22.90
71807;BMP280;59655;42.590;23.364;2023-07-13T02:45:07;91876.53;;;22.92
71807;BMP280;59655;42.590;23.364;2023-07-13T02:47:34;91877.13;;;22.90
71807;BMP280;59655;42.590;23.364;2023-07-13T02:49:59;91873.03;;;22.89
71807;BMP280;59655;42.590;23.364;2023-07-13T02:52:25;91868.06;;;22.84
71807;BMP280;59655;42.590;23.364;2023-07-13T02:54:51;91868.06;;;22.84
71807;BMP280;59655;42.590;23.364;2023-07-13T02:57:16;91868.84;;;22.86
71807;BMP280;59655;42.590;23.364;2023-07-13T02:59:42;91874.53;;;22.92
71807;BMP280;59655;42.590;23.364;2023-07-13T03:02:07;91870.59;;;22.80
71807;BMP280;59655;42.590;23.364;2023-07-13T03:04:35;91872.16;;;22.85
71807;BMP280;59655;42.590;23.364;2023-07-13T03:07:01;91867.28;;;22.81
71807;BMP280;59655;42.590;23.364;2023-07-13T03:09:26;91863.69;;;22.77
71807;BMP280;59655;42.590;23.364;2023-07-13T03:11:53;91866.41;;;22.77
71807;BMP280;59655;42.590;23.364;2023-07-13T03:14:19;91872.97;;;22.58
71807;BMP280;59655;42.590;23.364;2023-07-13T03:16:45;91866.56;;;22.65
71807;BMP280;59655;42.590;23.364;2023-07-13T03:19:10;91868.31;;;22.74
71807;BMP280;59655;42.590;23.364;2023-07-13T03:21:35;91871.19;;;22.78
71807;BMP280;59655;42.590;23.364;2023-07-13T03:24:01;91873.31;;;22.80
71807;BMP280;59655;42.590;23.364;2023-07-13T03:26:26;91874.78;;;22.83
71807;BMP280;59655;42.590;23.364;2023-07-13T03:28:52;91872.50;;;22.77
71807;BMP280;59655;42.590;23.364;2023-07-13T03:31:24;91879.75;;;22.72
71807;BMP280;59655;42.590;23.364;2023-07-13T03:33:50;91879.66;;;22.70
71807;BMP280;59655;42.590;23.364;2023-07-13T03:36:20;91874.53;;;22.77
71807;BMP280;59655;42.590;23.364;2023-07-13T03:38:47;91868.47;;;22.78
71807;BMP280;59655;42.590;23.364;2023-07-13T03:41:14;91882.13;;;22.80
71807;BMP280;59655;42.590;23.364;2023-07-13T03:43:39;91885.59;;;22.83
71807;BMP280;59655;42.590;23.364;2023-07-13T03:46:05;91876.00;;;22.80
71807;BMP280;59655;42.590;23.364;2023-07-13T03:48:30;91874.19;;;22.84
71807;BMP280;59655;42.590;23.364;2023-07-13T03:50:56;91875.50;;;22.83
71807;BMP280;59655;42.590;23.364;2023-07-13T03:53:21;91880.72;;;22.79
71807;BMP280;59655;42.590;23.364;2023-07-13T03:55:46;91869.34;;;22.83
71807;BMP280;59655;42.590;23.364;2023-07-13T03:58:36;91876.19;;;22.84
71807;BMP280;59655;42.590;23.364;2023-07-13T04:01:03;91870.50;;;22.78
71807;BMP280;59655;42.590;23.364;2023-07-13T04:03:31;91878.09;;;22.81
71807;BMP280;59655;42.590;23.364;2023-07-13T04:05:59;91876.25;;;22.86
71807;BMP280;59655;42.590;23.364;2023-07-13T04:08:29;91875.75;;;22.89
71807;BMP280;59655;42.590;23.364;2023-07-13T04:10:56;91873.13;;;22.91
71807;BMP280;59655;42.590;23.364;2023-07-13T04:13:22;91881.44;;;22.95
71807;BMP280;59655;42.590;23.364;2023-07-13T04:15:48;91889.09;;;22.85
71807;BMP280;59655;42.590;23.364;2023-07-13T04:18:13;91876.88;;;22.84
71807;BMP280;59655;42.590;23.364;2023-07-13T04:20:39;91877.84;;;22.91
71807;BMP280;59655;42.590;23.364;2023-07-13T04:23:04;91878.97;;;23.02
71807;BMP280;59655;42.590;23.364;2023-07-13T04:25:29;91875.75;;;23.05
71807;BMP280;59655;42.590;23.364;2023-07-13T04:27:55;91878.53;;;23.07
71807;BMP280;59655;42.590;23.364;2023-07-13T04:30:21;91888.22;;;23.12
71807;BMP280;59655;42.590;23.364;2023-07-13T04:32:47;91889.81;;;23.17
71807;BMP280;59655;42.590;23.364;2023-07-13T04:35:12;91887.28;;;23.21
71807;BMP280;59655;42.590;23.364;2023-07-13T04:37:39;91888.06;;;23.24
71807;BMP280;59655;42.590;23.364;2023-07-13T04:40:05;91899.06;;;23.28
71807;BMP280;59655;42.590;23.364;2023-07-13T04:42:31;91885.69;;;23.32
71807;BMP280;59655;42.590;23.364;2023-07-13T04:44:57;91895.28;;;23.35
71807;BMP280;59655;42.590;23.364;2023-07-13T04:47:23;91892.69;;;23.37
71807;BMP280;59655;42.590;23.364;2023-07-13T04:49:48;91889.44;;;23.41
71807;BMP280;59655;42.590;23.364;2023-07-13T04:52:13;91895.03;;;23.45
71807;BMP280;59655;42.590;23.364;2023-07-13T04:54:39;91891.72;;;23.46
71807;BMP280;59655;42.590;23.364;2023-07-13T04:57:05;91900.59;;;23.49
71807;BMP280;59655;42.590;23.364;2023-07-13T04:59:34;91896.31;;;23.44
71807;BMP280;59655;42.590;23.364;2023-07-13T05:01:59;91905.41;;;23.51
71807;BMP280;59655;42.590;23.364;2023-07-13T05:04:27;91921.69;;;23.51
71807;BMP280;59655;42.590;23.364;2023-07-13T05:06:52;91916.44;;;23.55
71807;BMP280;59655;42.590;23.364;2023-07-13T05:09:19;91906.44;;;23.59
71807;BMP280;59655;42.590;23.364;2023-07-13T05:11:44;91925.41;;;23.59
71807;BMP280;59655;42.590;23.364;2023-07-13T05:14:10;91923.56;;;23.64
71807;BMP280;59655;42.590;23.364;2023-07-13T05:16:35;91921.66;;;23.66
71807;BMP280;59655;42.590;23.364;2023-07-13T05:19:02;91925.78;;;23.67
71807;BMP280;59655;42.590;23.364;2023-07-13T05:21:28;91929.84;;;23.68
71807;BMP280;59655;42.590;23.364;2023-07-13T05:23:53;91923.75;;;23.68
71807;BMP280;59655;42.590;23.364;2023-07-13T05:26:18;91925.91;;;23.71
71807;BMP280;59655;42.590;23.364;2023-07-13T05:28:46;91928.00;;;23.73
71807;BMP280;59655;42.590;23.364;2023-07-13T05:31:12;91921.28;;;23.74
71807;BMP280;59655;42.590;23.364;2023-07-13T05:33:37;91937.63;;;23.76
71807;BMP280;59655;42.590;23.364;2023-07-13T05:36:03;91932.31;;;23.78
71807;BMP280;59655;42.590;23.364;2023-07-13T05:38:28;91940.66;;;23.84
71807;BMP280;59655;42.590;23.364;2023-07-13T05:40:55;91935.50;;;23.90
71807;BMP280;59655;42.590;23.364;2023-07-13T05:43:21;91942.91;;;23.90
71807;BMP280;59655;42.590;23.364;2023-07-13T05:45:47;91939.53;;;23.89
71807;BMP280;59655;42.590;23.364;2023-07-13T05:48:12;91945.63;;;23.90
71807;BMP280;59655;42.590;23.364;2023-07-13T05:50:37;91940.31;;;23.92
71807;BMP280;59655;42.590;23.364;2023-07-13T05:53:04;91941.72;;;23.93
71807;BMP280;59655;42.590;23.364;2023-07-13T05:55:30;91943.09;;;23.94
71807;BMP280;59655;42.590;23.364;2023-07-13T05:57:56;91940.47;;;23.96
71807;BMP280;59655;42.590;23.364;2023-07-13T06:00:23;91941.84;;;23.97
71807;BMP280;59655;42.590;23.364;2023-07-13T06:02:49;91939.84;;;23.98
71807;BMP280;59655;42.590;23.364;2023-07-13T06:05:14;91947.38;;;23.99
71807;BMP280;59655;42.590;23.364;2023-07-13T06:07:41;91944.72;;;24.01
71807;BMP280;59655;42.590;23.364;2023-07-13T06:10:06;91944.81;;;24.03
71807;BMP280;59655;42.590;23.364;2023-07-13T06:12:32;91937.38;;;24.04
71807;BMP280;59655;42.590;23.364;2023-07-13T06:14:57;91928.00;;;24.07
71807;BMP280;59655;42.590;23.364;2023-07-13T06:17:23;91934.19;;;24.09
71807;BMP280;59655;42.590;23.364;2023-07-13T06:19:48;91931.50;;;24.09
71807;BMP280;59655;42.590;23.364;2023-07-13T06:22:13;91922.75;;;24.11
71807;BMP280;59655;42.590;23.364;2023-07-13T06:24:39;91932.38;;;24.14
71807;BMP280;59655;42.590;23.364;2023-07-13T06:27:05;91939.97;;;24.17
71807;BMP280;59655;42.590;23.364;2023-07-13T06:29:30;91943.38;;;24.18
71807;BMP280;59655;42.590;23.364;2023-07-13T06:31:56;91939.31;;;24.19
71807;BMP280;59655;42.590;23.364;2023-07-13T06:34:22;91941.44;;;24.20
71807;BMP280;59655;42.590;23.364;2023-07-13T06:36:47;91931.38;;;24.23
71807;BMP280;59655;42.590;23.364;2023-07-13T06:39:13;91940.28;;;24.26
71807;BMP280;59655;42.590;23.364;2023-07-13T06:41:38;91935.47;;;24.24
71807;BMP280;59655;42.590;23.364;2023-07-13T06:44:04;91936.94;;;24.27
71807;BMP280;59655;42.590;23.364;2023-07-13T06:46:30;91939.09;;;24.31
71807;BMP280;59655;42.590;23.364;2023-07-13T06:48:55;91932.38;;;24.32
71807;BMP280;59655;42.590;23.364;2023-07-13T06:51:21;91944.00;;;24.34
71807;BMP280;59655;42.590;23.364;2023-07-13T06:53:47;91940.69;;;24.36
71807;BMP280;59655;42.590;23.364;2023-07-13T06:56:12;91944.16;;;24.38
71807;BMP280;59655;42.590;23.364;2023-07-13T06:58:38;91942.16;;;24.39
71807;BMP280;59655;42.590;23.364;2023-07-13T07:01:04;91933.41;;;24.40
71807;BMP280;59655;42.590;23.364;2023-07-13T07:03:29;91930.81;;;24.44
71807;BMP280;59655;42.590;23.364;2023-07-13T07:06:17;91939.13;;;24.49
71807;BMP280;59655;42.590;23.364;2023-07-13T07:08:43;91940.50;;;24.50
71807;BMP280;59655;42.590;23.364;2023-07-13T07:11:13;91934.38;;;24.49
71807;BMP280;59655;42.590;23.364;2023-07-13T07:13:38;91938.53;;;24.50
71807;BMP280;59655;42.590;23.364;2023-07-13T07:16:05;91946.72;;;24.52
71807;BMP280;59655;42.590;23.364;2023-07-13T07:18:31;91954.97;;;24.54
71807;BMP280;59655;42.590;23.364;2023-07-13T07:20:56;91952.31;;;24.56
71807;BMP280;59655;42.590;23.364;2023-07-13T07:23:21;91958.50;;;24.59
71807;BMP280;59655;42.590;23.364;2023-07-13T07:25:47;91947.72;;;24.61
71807;BMP280;59655;42.590;23.364;2023-07-13T07:28:15;91945.63;;;24.59
71807;BMP280;59655;42.590;23.364;2023-07-13T07:30:43;91951.78;;;24.60
71807;BMP280;59655;42.590;23.364;2023-07-13T07:33:09;91950.44;;;24.61
71807;BMP280;59655;42.590;23.364;2023-07-13T07:35:34;91949.81;;;24.62
71807;BMP280;59655;42.590;23.364;2023-07-13T07:38:00;91944.38;;;24.62
71807;BMP280;59655;42.590;23.364;2023-07-13T07:40:25;91942.31;;;24.61
71807;BMP280;59655;42.590;23.364;2023-07-13T07:42:51;91944.47;;;24.64
71807;BMP280;59655;42.590;23.364;2023-07-13T07:45:17;91939.09;;;24.66
71807;BMP280;59655;42.590;23.364;2023-07-13T07:47:42;91943.84;;;24.66
71807;BMP280;59655;42.590;23.364;2023-07-13T07:50:08;91940.53;;;24.67
71807;BMP280;59655;42.590;23.364;2023-07-13T07:52:34;91933.13;;;24.70
71807;BMP280;59655;42.590;23.364;2023-07-13T07:54:59;91936.75;;;24.77
71807;BMP280;59655;42.590;23.364;2023-07-13T07:57:24;91931.91;;;24.73
71807;BMP280;59655;42.590;23.364;2023-07-13T07:59:50;91933.97;;;24.75
71807;BMP280;59655;42.590;23.364;2023-07-13T08:02:15;91933.28;;;24.74
71807;BMP280;59655;42.590;23.364;2023-07-13T08:04:41;91930.03;;;24.78
71807;BMP280;59655;42.590;23.364;2023-07-13T08:07:08;91922.72;;;24.82
71807;BMP280;59655;42.590;23.364;2023-07-13T08:09:33;91916.66;;;24.84
71807;BMP280;59655;42.590;23.364;2023-07-13T08:11:59;91923.50;;;24.85
71807;BMP280;59655;42.590;23.364;2023-07-13T08:14:24;91920.84;;;24.87
71807;BMP280;59655;42.590;23.364;2023-07-13T08:16:49;91917.59;;;24.90
71807;BMP280;59655;42.590;23.364;2023-07-13T08:19:15;91906.97;;;24.97
71807;BMP280;59655;42.590;23.364;2023-07-13T08:21:40;91898.94;;;25.01
71807;BMP280;59655;42.590;23.364;2023-07-13T08:24:07;91899.56;;;24.99
71807;BMP280;59655;42.590;23.364;2023-07-13T08:26:33;91911.75;;;24.98
71807;BMP280;59655;42.590;23.364;2023-07-13T08:28:58;91901.25;;;25.08
71807;BMP280;59655;42.590;23.364;2023-07-13T08:31:23;91895.91;;;25.10
71807;BMP280;59655;42.590;23.364;2023-07-13T08:33:49;91897.13;;;25.07
71807;BMP280;59655;42.590;23.364;2023-07-13T08:36:15;91897.06;;;25.05
71807;BMP280;59655;42.590;23.364;2023-07-13T08:38:41;91891.06;;;25.09
71807;BMP280;59655;42.590;23.364;2023-07-13T08:41:16;91891.16;;;25.11
71807;BMP280;59655;42.590;23.364;2023-07-13T08:43:45;91905.66;;;25.17
71807;BMP280;59655;42.590;23.364;2023-07-13T08:46:30;91901.31;;;25.30
71807;BMP280;59655;42.590;23.364;2023-07-13T08:49:06;91894.03;;;25.35
71807;BMP280;59655;42.590;23.364;2023-07-13T08:51:51;91890.84;;;25.42
71807;BMP280;59655;42.590;23.364;2023-07-13T08:54:26;91888.91;;;25.45
71807;BMP280;59655;42.590;23.364;2023-07-13T08:56:53;91895.75;;;25.46
71807;BMP280;59655;42.590;23.364;2023-07-13T08:59:21;91893.16;;;25.50
71807;BMP280;59655;42.590;23.364;2023-07-13T09:04:30;91903.41;;;25.52
71807;BMP280;59655;42.590;23.364;2023-07-13T09:07:15;91910.91;;;25.53
71807;BMP280;59655;42.590;23.364;2023-07-13T09:15:22;91928.34;;;25.66
71807;BMP280;59655;42.590;23.364;2023-07-13T09:17:51;91933.78;;;25.66
71807;BMP280;59655;42.590;23.364;2023-07-13T09:22:46;91944.03;;;25.67
71807;BMP280;59655;42.590;23.364;2023-07-13T09:25:31;91937.06;;;25.62
71807;BMP280;59655;42.590;23.364;2023-07-13T09:28:25;91940.69;;;25.69
71807;BMP280;59655;42.590;23.364;2023-07-13T09:31:02;91948.13;;;25.68
71807;BMP280;59655;42.590;23.364;2023-07-13T09:33:29;91945.41;;;25.68
71807;BMP280;59655;42.590;23.364;2023-07-13T09:35:58;91945.06;;;25.78
71807;BMP280;59655;42.590;23.364;2023-07-13T09:38:27;91941.63;;;25.78
71807;BMP280;59655;42.590;23.364;2023-07-13T09:44:01;91941.03;;;25.79
71807;BMP280;59655;42.590;23.364;2023-07-13T09:46:27;91948.75;;;25.87
71807;BMP280;59655;42.590;23.364;2023-07-13T09:48:52;91938.00;;;25.91
71807;BMP280;59655;42.590;23.364;2023-07-13T09:51:18;91936.53;;;25.88
71807;BMP280;59655;42.590;23.364;2023-07-13T09:53:43;91938.00;;;25.91
71807;BMP280;59655;42.590;23.364;2023-07-13T09:56:20;91936.09;;;25.95
71807;BMP280;59655;42.590;23.364;2023-07-13T09:58:46;91933.13;;;26.09
71807;BMP280;59655;42.590;23.364;2023-07-13T10:01:11;91932.38;;;26.07
71807;BMP280;59655;42.590;23.364;2023-07-13T10:03:37;91920.16;;;26.08
71807;BMP280;59655;42.590;23.364;2023-07-13T10:06:20;91924.97;;;26.09
71807;BMP280;59655;42.590;23.364;2023-07-13T10:08:47;91914.00;;;26.07
71807;BMP280;59655;42.590;23.364;2023-07-13T10:13:53;91910.16;;;26.14
71807;BMP280;59655;42.590;23.364;2023-07-13T10:16:21;91897.91;;;26.13
71807;BMP280;59655;42.590;23.364;2023-07-13T10:18:57;91906.00;;;26.11
71807;BMP280;59655;42.590;23.364;2023-07-13T10:21:32;91906.56;;;26.08
71807;BMP280;59655;42.590;23.364;2023-07-13T10:24:16;91906.50;;;26.06
71807;BMP280;59655;42.590;23.364;2023-07-13T10:26:54;91898.41;;;26.08
71807;BMP280;59655;42.590;23.364;2023-07-13T10:29:22;91902.00;;;26.14
71807;BMP280;59655;42.590;23.364;2023-07-13T10:31:49;91901.94;;;26.12
71807;BMP280;59655;42.590;23.364;2023-07-13T10:34:15;91900.84;;;26.21
71807;BMP280;59655;42.590;23.364;2023-07-13T10:36:44;91892.88;;;26.28
71807;BMP280;59655;42.590;23.364;2023-07-13T10:39:19;91893.16;;;26.38
71807;BMP280;59655;42.590;23.364;2023-07-13T10:41:48;91901.41;;;26.40
71807;BMP280;59655;42.590;23.364;2023-07-13T10:44:29;91904.63;;;26.34
71807;BMP280;59655;42.590;23.364;2023-07-13T10:47:01;91886.41;;;26.39
71807;BMP280;59655;42.590;23.364;2023-07-13T10:49:29;91887.91;;;26.44
71807;BMP280;59655;42.590;23.364;2023-07-13T10:51:56;91885.28;;;26.46
71807;BMP280;59655;42.590;23.364;2023-07-13T10:54:30;91888.00;;;26.46
71807;BMP280;59655;42.590;23.364;2023-07-13T10:57:15;91881.44;;;26.55
71807;BMP280;59655;42.590;23.364;2023-07-13T10:59:42;91871.38;;;26.60
71807;BMP280;59655;42.590;23.364;2023-07-13T11:02:30;91877.44;;;26.58
71807;BMP280;59655;42.590;23.364;2023-07-13T11:04:56;91874.09;;;26.60
71807;BMP280;59655;42.590;23.364;2023-07-13T11:09:58;91862.78;;;26.69
71807;BMP280;59655;42.590;23.364;2023-07-13T11:17:35;91860.91;;;26.76
71807;BMP280;59655;42.590;23.364;2023-07-13T11:22:47;91846.75;;;26.82
71807;BMP280;59655;42.590;23.364;2023-07-13T11:35:43;91840.31;;;26.95
71807;BMP280;59655;42.590;23.364;2023-07-13T11:38:16;91843.94;;;27.04
71807;BMP280;59655;42.590;23.364;2023-07-13T11:40:44;91839.31;;;27.08
71807;BMP280;59655;42.590;23.364;2023-07-13T11:43:13;91842.09;;;27.12
71807;BMP280;59655;42.590;23.364;2023-07-13T11:45:39;91834.53;;;27.09
71807;BMP280;59655;42.590;23.364;2023-07-13T11:48:04;91837.53;;;27.19
71807;BMP280;59655;42.590;23.364;2023-07-13T11:50:30;91837.53;;;27.19
71807;BMP280;59655;42.590;23.364;2023-07-13T11:52:58;91834.03;;;27.16
71807;BMP280;59655;42.590;23.364;2023-07-13T11:55:24;91835.69;;;27.28
71807;BMP280;59655;42.590;23.364;2023-07-13T11:57:59;91826.44;;;27.39
71807;BMP280;59655;42.590;23.364;2023-07-13T12:00:29;91826.28;;;27.33
71807;BMP280;59655;42.590;23.364;2023-07-13T12:02:56;91824.88;;;27.32
71807;BMP280;59655;42.590;23.364;2023-07-13T12:05:22;91822.66;;;27.52
71807;BMP280;59655;42.590;23.364;2023-07-13T12:07:49;91819.94;;;27.52
71807;BMP280;59655;42.590;23.364;2023-07-13T12:12:53;91816.13;;;27.63
71807;BMP280;59655;42.590;23.364;2023-07-13T12:15:19;91821.63;;;27.65
71807;BMP280;59655;42.590;23.364;2023-07-13T12:17:46;91818.34;;;27.71
71807;BMP280;59655;42.590;23.364;2023-07-13T12:20:24;91814.50;;;27.82
71807;BMP280;59655;42.590;23.364;2023-07-13T12:22:51;91812.03;;;27.94
71807;BMP280;59655;42.590;23.364;2023-07-13T12:25:18;91808.72;;;27.98
71807;BMP280;59655;42.590;23.364;2023-07-13T12:27:51;91794.81;;;28.20
71807;BMP280;59655;42.590;23.364;2023-07-13T12:30:29;91793.72;;;28.33
71807;BMP280;59655;42.590;23.364;2023-07-13T12:33:11;91791.94;;;28.46
71807;BMP280;59655;42.590;23.364;2023-07-13T12:35:46;91792.38;;;28.70
71807;BMP280;59655;42.590;23.364;2023-07-13T12:38:12;91789.97;;;28.87
71807;BMP280;59655;42.590;23.364;2023-07-13T12:40:38;91785.69;;;29.18
71807;BMP280;59655;42.590;23.364;2023-07-13T12:43:05;91781.53;;;29.57
71807;BMP280;59655;42.590;23.364;2023-07-13T12:45:32;91778.19;;;30.11
71807;BMP280;59655;42.590;23.364;2023-07-13T12:48:03;91780.31;;;30.79
71807;BMP280;59655;42.590;23.364;2023-07-13T12:50:41;91778.28;;;31.73
71807;BMP280;59655;42.590;23.364;2023-07-13T12:53:13;91771.03;;;32.39
71807;BMP280;59655;42.590;23.364;2023-07-13T12:55:44;91764.28;;;32.95
71807;BMP280;59655;42.590;23.364;2023-07-13T12:58:35;91759.44;;;33.48
71807;BMP280;59655;42.590;23.364;2023-07-13T13:01:02;91760.00;;;33.89
71807;BMP280;59655;42.590;23.364;2023-07-13T13:03:33;91766.09;;;34.20
71807;BMP280;59655;42.590;23.364;2023-07-13T13:06:24;91759.00;;;34.58
71807;BMP280;59655;42.590;23.364;2023-07-13T13:08:55;91754.66;;;34.88
71807;BMP280;59655;42.590;23.364;2023-07-13T13:11:22;91760.69;;;35.11
71807;BMP280;59655;42.590;23.364;2023-07-13T13:13:48;91747.41;;;35.31
71807;BMP280;59655;42.590;23.364;2023-07-13T13:16:32;91742.34;;;35.54
71807;BMP280;59655;42.590;23.364;2023-07-13T13:19:28;91739.97;;;35.81
71807;BMP280;59655;42.590;23.364;2023-07-13T13:21:55;91746.75;;;35.92
71807;BMP280;59655;42.590;23.364;2023-07-13T13:24:24;91743.84;;;36.03
71807;BMP280;59655;42.590;23.364;2023-07-13T13:26:51;91745.72;;;36.20
71807;BMP280;59655;42.590;23.364;2023-07-13T13:29:23;91744.13;;;36.36
71807;BMP280;59655;42.590;23.364;2023-07-13T13:31:53;91736.38;;;36.44
71807;BMP280;59655;42.590;23.364;2023-07-13T13:34:19;91735.63;;;36.50
71807;BMP280;59655;42.590;23.364;2023-07-13T13:36:45;91738.19;;;36.64
71807;BMP280;59655;42.590;23.364;2023-07-13T13:39:34;91733.13;;;36.77
71807;BMP280;59655;42.590;23.364;2023-07-13T13:42:00;91743.28;;;36.91
71807;BMP280;59655;42.590;23.364;2023-07-13T13:44:25;91734.22;;;36.94
71807;BMP280;59655;42.590;23.364;2023-07-13T13:46:52;91732.06;;;37.01
71807;BMP280;59655;42.590;23.364;2023-07-13T13:49:21;91743.03;;;37.07
71807;BMP280;59655;42.590;23.364;2023-07-13T13:51:48;91735.47;;;37.03
71807;BMP280;59655;42.590;23.364;2023-07-13T13:54:15;91731.16;;;37.15
71807;BMP280;59655;42.590;23.364;2023-07-13T13:56:46;91731.22;;;37.09
71807;BMP280;59655;42.590;23.364;2023-07-13T13:59:12;91735.47;;;37.03
71807;BMP280;59655;42.590;23.364;2023-07-13T14:01:40;91731.91;;;37.09
71807;BMP280;59655;42.590;23.364;2023-07-13T14:04:13;91735.44;;;37.05
71807;BMP280;59655;42.590;23.364;2023-07-13T14:06:40;91722.75;;;37.19
71807;BMP280;59655;42.590;23.364;2023-07-13T14:09:09;91728.38;;;37.15
71807;BMP280;59655;42.590;23.364;2023-07-13T14:11:36;91719.44;;;37.12
71807;BMP280;59655;42.590;23.364;2023-07-13T14:14:02;91726.94;;;37.16
71807;BMP280;59655;42.590;23.364;2023-07-13T14:16:31;91724.38;;;37.05
71807;BMP280;59655;42.590;23.364;2023-07-13T14:18:57;91720.16;;;37.09
71807;BMP280;59655;42.590;23.364;2023-07-13T14:21:26;91724.38;;;37.03
71807;BMP280;59655;42.590;23.364;2023-07-13T14:23:52;91723.28;;;36.88
71807;BMP280;59655;42.590;23.364;2023-07-13T14:26:25;91721.19;;;36.89
71807;BMP280;59655;42.590;23.364;2023-07-13T14:28:55;91716.53;;;36.77
71807;BMP280;59655;42.590;23.364;2023-07-13T14:31:24;91717.25;;;36.73
71807;BMP280;59655;42.590;23.364;2023-07-13T14:33:49;91722.91;;;36.67
71807;BMP280;59655;42.590;23.364;2023-07-13T14:36:32;91723.75;;;36.58
71807;BMP280;59655;42.590;23.364;2023-07-13T14:39:01;91720.44;;;36.47
71807;BMP280;59655;42.590;23.364;2023-07-13T14:41:27;91716.41;;;36.40
71807;BMP280;59655;42.590;23.364;2023-07-13T14:43:53;91713.03;;;36.33